Columbia — WYR2092 — position and weather

sailwx.info

Track history (hours):
 
Tides and Currents Weather Stations Pressure Air Temp Water Temp Dewpoint Dewpoint Depression Visibility Wind Speed Wind Dir Waves Ship Positions

Columbia

Owner: ALASKA, STATE OF, ANCHORAGE, AK. More information available from US FCC via Universal Licensing System and Coast Guard Vessel Documentation Center.

Last reported at 2019-Sep-22 00:00 UTC. Time now 2019-Sep-22 00:02 UTC.
Position N 52°16' W 128°25'.

Type: Passenger vessel. MMSI: 367144000.

Date/timePositionNaut miles runAvg speedWind from/ knotsBaromVisibWave heightAir tempDewpointWater temp
2019-Sep-22 00:00N 52°16' W 128°25'815.5
2019-Sep-21 23:30N 52°14' W 128°12'5 9.5
2019-Sep-21 23:00N 52°10' W 128°08'4 7.0
2019-Sep-21 22:30N 52°07' W 128°08'713.3
2019-Sep-21 22:00N 52°04' W 127°57'715.2
2019-Sep-21 21:30N 51°57' W 127°55'816.3
2019-Sep-21 21:00N 51°49' W 127°55'816.1
2019-Sep-21 20:30N 51°41' W 127°55'816.2
2019-Sep-21 20:00N 51°33' W 127°52'816.1
2019-Sep-21 19:30N 51°25' W 127°51'816.1
2019-Sep-21 19:00N 51°17' W 127°54'612.4
2019-Sep-21 18:30N 51°11' W 127°52'815.8
2019-Sep-21 18:01N 51°05' W 127°43'815.3
2019-Sep-21 17:31N 50°59' W 127°35'9315.0
2019-Sep-21 11:18N 50°17' W 125°24'517.4
2019-Sep-21 11:00N 50°12' W 125°22'816.3
2019-Sep-21 10:30N 50°05' W 125°16'612.2
2019-Sep-21 10:00N 49°59' W 125°12'816.7
2019-Sep-21 09:30N 49°53' W 125°03'815.9
2019-Sep-21 09:00N 49°48' W 124°54'816.1
2019-Sep-21 08:30N 49°42' W 124°45'1016.3
2019-Sep-21 07:52N 49°35' W 124°34'1016.1
2019-Sep-21 07:13N 49°28' W 124°22'315.7
2019-Sep-21 07:00N 49°26' W 124°18'816.2
2019-Sep-21 06:30N 49°24' W 124°06'815.5
2019-Sep-21 06:00N 49°22' W 123°54'815.2
2019-Sep-21 05:30N 49°19' W 123°44'815.5
2019-Sep-21 05:00N 49°13' W 123°35'815.6
2019-Sep-21 04:30N 49°08' W 123°27'815.4
2019-Sep-21 04:00N 49°03' W 123°18'815.6
2019-Sep-21 03:30N 48°57' W 123°09'815.3
2019-Sep-21 03:00N 48°52' W 123°01'815.3
2019-Sep-21 02:29N 48°47' W 122°51'715.4
2019-Sep-21 02:00N 48°42' W 122°43'714.0
2019-Sep-21 01:30N 48°39' W 122°34'5 9.1
2019-Sep-21 00:55N 48°43' W 122°31'0 0.0
2019-Sep-20 23:28N 48°43' W 122°31'0 0.0
2019-Sep-20 22:40N 48°43' W 122°31'0 0.0
2019-Sep-20 22:10N 48°43' W 122°31'0 0.0
2019-Sep-20 21:40N 48°43' W 122°31'0 0.0
2019-Sep-20 21:28N 48°43' W 122°31'0 0.0
2019-Sep-20 20:34N 48°43' W 122°31'0 0.0
2019-Sep-20 20:28N 48°43' W 122°31'0 0.0
2019-Sep-20 19:58N 48°43' W 122°31'0 0.0
2019-Sep-20 18:46N 48°43' W 122°31'0 0.0
2019-Sep-20 18:28N 48°43' W 122°31'0 0.0
2019-Sep-20 16:46N 48°43' W 122°31'0 0.0
2019-Sep-20 15:34N 48°43' W 122°31'0 0.0
2019-Sep-20 14:39N 48°43' W 122°31'0 0.6
2019-Sep-20 14:30N 48°43' W 122°31'4 7.3
2019-Sep-20 14:01N 48°40' W 122°33'510.9
2019-Sep-20 13:31N 48°40' W 122°42'815.3
2019-Sep-20 13:01N 48°46' W 122°49'816.2
2019-Sep-20 12:30N 48°50' W 122°59'816.1
2019-Sep-20 12:01N 48°55' W 123°09'816.3
2019-Sep-20 11:30N 49°00' W 123°18'816.1
2019-Sep-20 11:00N 49°06' W 123°27'816.4
2019-Sep-20 10:30N 49°12' W 123°35'816.7
2019-Sep-20 10:00N 49°18' W 123°44'815.4
2019-Sep-20 09:31N 49°22' W 123°54'815.8
2019-Sep-20 09:00N 49°24' W 124°06'714.8
2019-Sep-20 08:30N 49°25' W 124°17'1715.5
2019-Sep-20 07:26N 49°36' W 124°36'716.0
2019-Sep-20 07:00N 49°41' W 124°44'816.2
2019-Sep-20 06:30N 49°47' W 124°53'816.2
2019-Sep-20 06:00N 49°53' W 125°01'816.4
2019-Sep-20 05:30N 49°59' W 125°10'510.9
2019-Sep-20 05:00N 50°03' W 125°15'4 8.2
2019-Sep-20 04:30N 50°07' W 125°18'611.5
2019-Sep-20 04:00N 50°12' W 125°22'713.3
2019-Sep-20 03:29N 50°18' W 125°25'9014.7
2019-Sep-19 21:22N 50°58' W 127°32'715.3
2019-Sep-19 20:53N 51°04' W 127°40'615.1
2019-Sep-19 20:30N 51°08' W 127°47'713.9
2019-Sep-19 20:00N 51°14' W 127°53'815.4
2019-Sep-19 19:30N 51°21' W 127°50'815.4
2019-Sep-19 19:00N 51°29' W 127°50'815.8
2019-Sep-19 18:30N 51°37' W 127°53'815.7
2019-Sep-19 18:00N 51°44' W 127°55'815.7
2019-Sep-19 17:30N 51°52' W 127°56'815.8
2019-Sep-19 17:00N 51°60' W 127°56'612.1
2019-Sep-19 16:30N 52°04' W 128°02'611.6
2019-Sep-19 16:01N 52°09' W 128°08'4 7.3
2019-Sep-19 15:30N 52°13' W 128°08'715.1
2019-Sep-19 15:00N 52°15' W 128°20'815.1
2019-Sep-19 14:30N 52°16' W 128°32'815.3
2019-Sep-19 14:00N 52°24' W 128°31'815.3
2019-Sep-19 13:30N 52°31' W 128°28'714.9
2019-Sep-19 13:00N 52°38' W 128°31'7813.8
2019-Sep-19 07:21N 53°42' W 129°48'616.1
2019-Sep-19 07:00N 53°46' W 129°54'815.6
2019-Sep-19 06:30N 53°51' W 130°03'815.3
2019-Sep-19 06:01N 53°57' W 130°12'815.4
2019-Sep-19 05:30N 54°04' W 130°17'815.3
2019-Sep-19 05:00N 54°10' W 130°26'815.4
2019-Sep-19 04:31N 54°16' W 130°33'714.9
2019-Sep-19 04:00N 54°23' W 130°37'815.6
2019-Sep-19 03:30N 54°31' W 130°39'814.6
2019-Sep-19 02:58N 54°38' W 130°45'714.5
2019-Sep-19 02:30N 54°41' W 130°55'714.4
2019-Sep-19 02:01N 54°48' W 130°58'  
2019-Sep-15 09:48N 54°38' W 130°41'517.2
2019-Sep-15 09:30N 54°32' W 130°39'817.0
2019-Sep-15 09:00N 54°24' W 130°37'917.6
2019-Sep-15 08:31N 54°16' W 130°32'917.7
2019-Sep-15 08:00N 54°08' W 130°24'815.5
2019-Sep-15 07:30N 54°03' W 130°15'917.2
2019-Sep-15 07:00N 53°55' W 130°10'917.6
2019-Sep-15 06:29N 53°48' W 129°58'8415.7
2019-Sep-15 01:06N 52°44' W 128°28'418.7
2019-Sep-15 00:52N 52°39' W 128°28'616.5
2019-Sep-15 00:30N 52°33' W 128°28'816.8
2019-Sep-15 00:01N 52°25' W 128°28'816.1
2019-Sep-14 23:30N 52°18' W 128°34'714.7
2019-Sep-14 23:00N 52°15' W 128°22'816.6
2019-Sep-14 22:30N 52°13' W 128°09'4 8.1
2019-Sep-14 22:00N 52°09' W 128°08'510.8
2019-Sep-14 21:30N 52°05' W 128°04'713.0
2019-Sep-14 21:00N 52°00' W 127°56'917.3
2019-Sep-14 20:31N 51°52' W 127°56'917.5
2019-Sep-14 20:00N 51°43' W 127°56'917.4
2019-Sep-14 19:30N 51°34' W 127°53'816.1
2019-Sep-14 19:00N 51°26' W 127°52'815.5
2019-Sep-14 18:30N 51°20' W 127°59'816.7
2019-Sep-14 18:00N 51°13' W 127°52'816.7
2019-Sep-14 17:30N 51°06' W 127°44'917.1
2019-Sep-14 17:00N 50°60' W 127°35'9016.6
2019-Sep-14 11:34N 50°20' W 125°27'113.9
2019-Sep-14 11:29N 50°20' W 125°25'816.2
2019-Sep-14 11:00N 50°12' W 125°22'612.3
2019-Sep-14 10:31N 50°07' W 125°19'5 9.0
2019-Sep-14 10:00N 50°03' W 125°14'510.3
2019-Sep-14 09:30N 49°59' W 125°10'816.6
2019-Sep-14 09:00N 49°52' W 125°02'816.7
2019-Sep-14 08:30N 49°47' W 124°52'816.8
2019-Sep-14 08:00N 49°41' W 124°43'917.0
2019-Sep-14 07:30N 49°35' W 124°34'917.2
2019-Sep-14 06:59N 49°29' W 124°24'816.4
2019-Sep-14 06:30N 49°25' W 124°13'917.0
2019-Sep-14 06:00N 49°23' W 124°00'817.0
2019-Sep-14 05:30N 49°21' W 123°48'817.0
2019-Sep-14 05:00N 49°15' W 123°38'816.6
2019-Sep-14 04:30N 49°09' W 123°29'816.6
2019-Sep-14 04:00N 49°04' W 123°20'816.1
2019-Sep-14 03:30N 48°58' W 123°11'816.0
2019-Sep-14 03:00N 48°53' W 123°02'917.1
2019-Sep-14 02:28N 48°47' W 122°51'816.8
2019-Sep-14 02:00N 48°42' W 122°43'612.1
2019-Sep-14 01:30N 48°40' W 122°34'4 0.7
2019-Sep-13 19:41N 48°43' W 122°31'0 0.0
2019-Sep-13 19:11N 48°43' W 122°31'0 0.0
2019-Sep-13 18:41N 48°43' W 122°31'0 0.0
2019-Sep-13 14:49N 48°43' W 122°31'0 0.3
2019-Sep-13 14:30N 48°43' W 122°31'611.3
2019-Sep-13 14:01N 48°38' W 122°34'713.2
2019-Sep-13 13:30N 48°41' W 122°44'714.9
2019-Sep-13 13:00N 48°46' W 122°51'917.3
2019-Sep-13 12:30N 48°51' W 123°02'918.1
2019-Sep-13 12:00N 48°56' W 123°13'917.4
2019-Sep-13 11:30N 49°02' W 123°23'917.2
2019-Sep-13 11:00N 49°09' W 123°31'917.4
2019-Sep-13 10:30N 49°15' W 123°40'917.2
2019-Sep-13 10:00N 49°22' W 123°49'816.3
2019-Sep-13 09:30N 49°23' W 124°01'816.8
2019-Sep-13 09:00N 49°25' W 124°14'815.9
2019-Sep-13 08:30N 49°29' W 124°25'816.6
2019-Sep-13 08:00N 49°35' W 124°34'816.7
2019-Sep-13 07:31N 49°41' W 124°43'816.4
2019-Sep-13 07:00N 49°46' W 124°52'817.0
2019-Sep-13 06:30N 49°52' W 125°01'814.9
2019-Sep-13 06:00N 49°58' W 125°09'713.3
2019-Sep-13 05:30N 50°03' W 125°15'612.2
2019-Sep-13 05:00N 50°08' W 125°21'5 9.6
2019-Sep-13 04:30N 50°13' W 125°22'4 9.0
2019-Sep-13 04:00N 50°17' W 125°25'6 9.2
2019-Sep-13 03:20N 50°21' W 125°32'610.1
2019-Sep-13 02:42N 50°22' W 125°41'410.0
2019-Sep-13 02:19N 50°23' W 125°48'7613.4
2019-Sep-12 20:41N 50°59' W 127°32'515.6
2019-Sep-12 20:20N 51°02' W 127°38'515.9
2019-Sep-12 20:00N 51°06' W 127°45'815.9
2019-Sep-12 19:30N 51°10' W 127°56'815.1
2019-Sep-12 19:00N 51°17' W 127°52'815.6
2019-Sep-12 18:30N 51°25' W 127°50'816.3
2019-Sep-12 18:00N 51°33' W 127°52'816.2
2019-Sep-12 17:30N 51°40' W 127°55'816.4
2019-Sep-12 17:01N 51°49' W 127°56'816.4
2019-Sep-12 16:30N 51°57' W 127°56'815.2
2019-Sep-12 16:00N 52°04' W 127°58'713.6
2019-Sep-12 15:31N 52°08' W 128°08'4 7.4
2019-Sep-12 15:00N 52°11' W 128°06'714.7
2019-Sep-12 14:30N 52°15' W 128°17'815.9
2019-Sep-12 14:00N 52°16' W 128°29'4 8.3
2019-Sep-12 13:31N 52°20' W 128°32'714.4
2019-Sep-12 13:00N 52°27' W 128°28'816.1
2019-Sep-12 12:30N 52°35' W 128°29'816.5
2019-Sep-12 12:00N 52°43' W 128°34'7514.4
2019-Sep-12 06:47N 53°43' W 129°49'515.9
2019-Sep-12 06:27N 53°46' W 129°55'715.6
2019-Sep-12 06:00N 53°51' W 130°03'715.0
2019-Sep-12 05:30N 53°57' W 130°12'815.2
2019-Sep-12 05:00N 54°04' W 130°16'713.3
2019-Sep-12 04:30N 54°09' W 130°24'815.7
2019-Sep-12 04:00N 54°15' W 130°32'816.2
2019-Sep-12 03:30N 54°23' W 130°37'816.9
2019-Sep-12 03:00N 54°31' W 130°39'916.3
2019-Sep-12 02:28N 54°39' W 130°46'816.5
2019-Sep-12 02:00N 54°45' W 130°54'  
Track history (hours):
 
Tides and Currents Weather Stations Pressure Air Temp Water Temp Dewpoint Dewpoint Depression Visibility Wind Speed Wind Dir Waves Ship Positions

Columbia

Owner: ALASKA, STATE OF, ANCHORAGE, AK. More information available from US FCC via Universal Licensing System and Coast Guard Vessel Documentation Center.

Last reported at 2019-Sep-22 00:00 UTC. Time now 2019-Sep-22 00:02 UTC.
Position N 52°16' W 128°25'.

Type: Passenger vessel. MMSI: 367144000.

Date/timePositionNaut miles runAvg speedWind from/ knotsBaromVisibWave heightAir tempDewpointWater temp
2019-Sep-22 00:00N 52°16' W 128°25'815.5
2019-Sep-21 23:30N 52°14' W 128°12'5 9.5
2019-Sep-21 23:00N 52°10' W 128°08'4 7.0
2019-Sep-21 22:30N 52°07' W 128°08'713.3
2019-Sep-21 22:00N 52°04' W 127°57'715.2
2019-Sep-21 21:30N 51°57' W 127°55'816.3
2019-Sep-21 21:00N 51°49' W 127°55'816.1
2019-Sep-21 20:30N 51°41' W 127°55'816.2
2019-Sep-21 20:00N 51°33' W 127°52'816.1
2019-Sep-21 19:30N 51°25' W 127°51'816.1
2019-Sep-21 19:00N 51°17' W 127°54'612.4
2019-Sep-21 18:30N 51°11' W 127°52'815.8
2019-Sep-21 18:01N 51°05' W 127°43'815.3
2019-Sep-21 17:31N 50°59' W 127°35'9315.0
2019-Sep-21 11:18N 50°17' W 125°24'517.4
2019-Sep-21 11:00N 50°12' W 125°22'816.3
2019-Sep-21 10:30N 50°05' W 125°16'612.2
2019-Sep-21 10:00N 49°59' W 125°12'816.7
2019-Sep-21 09:30N 49°53' W 125°03'815.9
2019-Sep-21 09:00N 49°48' W 124°54'816.1
2019-Sep-21 08:30N 49°42' W 124°45'1016.3
2019-Sep-21 07:52N 49°35' W 124°34'1016.1
2019-Sep-21 07:13N 49°28' W 124°22'315.7
2019-Sep-21 07:00N 49°26' W 124°18'816.2
2019-Sep-21 06:30N 49°24' W 124°06'815.5
2019-Sep-21 06:00N 49°22' W 123°54'815.2
2019-Sep-21 05:30N 49°19' W 123°44'815.5
2019-Sep-21 05:00N 49°13' W 123°35'815.6
2019-Sep-21 04:30N 49°08' W 123°27'815.4
2019-Sep-21 04:00N 49°03' W 123°18'815.6
2019-Sep-21 03:30N 48°57' W 123°09'815.3
2019-Sep-21 03:00N 48°52' W 123°01'815.3
2019-Sep-21 02:29N 48°47' W 122°51'715.4
2019-Sep-21 02:00N 48°42' W 122°43'714.0
2019-Sep-21 01:30N 48°39' W 122°34'5 9.1
2019-Sep-21 00:55N 48°43' W 122°31'0 0.0
2019-Sep-20 23:28N 48°43' W 122°31'0 0.0
2019-Sep-20 22:40N 48°43' W 122°31'0 0.0
2019-Sep-20 22:10N 48°43' W 122°31'0 0.0
2019-Sep-20 21:40N 48°43' W 122°31'0 0.0
2019-Sep-20 21:28N 48°43' W 122°31'0 0.0
2019-Sep-20 20:34N 48°43' W 122°31'0 0.0
2019-Sep-20 20:28N 48°43' W 122°31'0 0.0
2019-Sep-20 19:58N 48°43' W 122°31'0 0.0
2019-Sep-20 18:46N 48°43' W 122°31'0 0.0
2019-Sep-20 18:28N 48°43' W 122°31'0 0.0
2019-Sep-20 16:46N 48°43' W 122°31'0 0.0
2019-Sep-20 15:34N 48°43' W 122°31'0 0.0
2019-Sep-20 14:39N 48°43' W 122°31'0 0.6
2019-Sep-20 14:30N 48°43' W 122°31'4 7.3
2019-Sep-20 14:01N 48°40' W 122°33'510.9
2019-Sep-20 13:31N 48°40' W 122°42'815.3
2019-Sep-20 13:01N 48°46' W 122°49'816.2
2019-Sep-20 12:30N 48°50' W 122°59'816.1
2019-Sep-20 12:01N 48°55' W 123°09'816.3
2019-Sep-20 11:30N 49°00' W 123°18'816.1
2019-Sep-20 11:00N 49°06' W 123°27'816.4
2019-Sep-20 10:30N 49°12' W 123°35'816.7
2019-Sep-20 10:00N 49°18' W 123°44'815.4
2019-Sep-20 09:31N 49°22' W 123°54'815.8
2019-Sep-20 09:00N 49°24' W 124°06'714.8
2019-Sep-20 08:30N 49°25' W 124°17'1715.5
2019-Sep-20 07:26N 49°36' W 124°36'716.0
2019-Sep-20 07:00N 49°41' W 124°44'816.2
2019-Sep-20 06:30N 49°47' W 124°53'816.2
2019-Sep-20 06:00N 49°53' W 125°01'816.4
2019-Sep-20 05:30N 49°59' W 125°10'510.9
2019-Sep-20 05:00N 50°03' W 125°15'4 8.2
2019-Sep-20 04:30N 50°07' W 125°18'611.5
2019-Sep-20 04:00N 50°12' W 125°22'713.3
2019-Sep-20 03:29N 50°18' W 125°25'9014.7
2019-Sep-19 21:22N 50°58' W 127°32'715.3
2019-Sep-19 20:53N 51°04' W 127°40'615.1
2019-Sep-19 20:30N 51°08' W 127°47'713.9
2019-Sep-19 20:00N 51°14' W 127°53'815.4
2019-Sep-19 19:30N 51°21' W 127°50'815.4
2019-Sep-19 19:00N 51°29' W 127°50'815.8
2019-Sep-19 18:30N 51°37' W 127°53'815.7
2019-Sep-19 18:00N 51°44' W 127°55'815.7
2019-Sep-19 17:30N 51°52' W 127°56'815.8
2019-Sep-19 17:00N 51°60' W 127°56'612.1
2019-Sep-19 16:30N 52°04' W 128°02'611.6
2019-Sep-19 16:01N 52°09' W 128°08'4 7.3
2019-Sep-19 15:30N 52°13' W 128°08'715.1
2019-Sep-19 15:00N 52°15' W 128°20'815.1
2019-Sep-19 14:30N 52°16' W 128°32'815.3
2019-Sep-19 14:00N 52°24' W 128°31'815.3
2019-Sep-19 13:30N 52°31' W 128°28'714.9
2019-Sep-19 13:00N 52°38' W 128°31'7813.8
2019-Sep-19 07:21N 53°42' W 129°48'616.1
2019-Sep-19 07:00N 53°46' W 129°54'815.6
2019-Sep-19 06:30N 53°51' W 130°03'815.3
2019-Sep-19 06:01N 53°57' W 130°12'815.4
2019-Sep-19 05:30N 54°04' W 130°17'815.3
2019-Sep-19 05:00N 54°10' W 130°26'815.4
2019-Sep-19 04:31N 54°16' W 130°33'714.9
2019-Sep-19 04:00N 54°23' W 130°37'815.6
2019-Sep-19 03:30N 54°31' W 130°39'814.6
2019-Sep-19 02:58N 54°38' W 130°45'714.5
2019-Sep-19 02:30N 54°41' W 130°55'714.4
2019-Sep-19 02:01N 54°48' W 130°58'  
2019-Sep-15 09:48N 54°38' W 130°41'517.2
2019-Sep-15 09:30N 54°32' W 130°39'817.0
2019-Sep-15 09:00N 54°24' W 130°37'917.6
2019-Sep-15 08:31N 54°16' W 130°32'917.7
2019-Sep-15 08:00N 54°08' W 130°24'815.5
2019-Sep-15 07:30N 54°03' W 130°15'917.2
2019-Sep-15 07:00N 53°55' W 130°10'917.6
2019-Sep-15 06:29N 53°48' W 129°58'8415.7
2019-Sep-15 01:06N 52°44' W 128°28'418.7
2019-Sep-15 00:52N 52°39' W 128°28'616.5
2019-Sep-15 00:30N 52°33' W 128°28'816.8
2019-Sep-15 00:01N 52°25' W 128°28'816.1
2019-Sep-14 23:30N 52°18' W 128°34'714.7
2019-Sep-14 23:00N 52°15' W 128°22'816.6
2019-Sep-14 22:30N 52°13' W 128°09'4 8.1
2019-Sep-14 22:00N 52°09' W 128°08'510.8
2019-Sep-14 21:30N 52°05' W 128°04'713.0
2019-Sep-14 21:00N 52°00' W 127°56'917.3
2019-Sep-14 20:31N 51°52' W 127°56'917.5
2019-Sep-14 20:00N 51°43' W 127°56'917.4
2019-Sep-14 19:30N 51°34' W 127°53'816.1
2019-Sep-14 19:00N 51°26' W 127°52'815.5
2019-Sep-14 18:30N 51°20' W 127°59'816.7
2019-Sep-14 18:00N 51°13' W 127°52'816.7
2019-Sep-14 17:30N 51°06' W 127°44'917.1
2019-Sep-14 17:00N 50°60' W 127°35'9016.6
2019-Sep-14 11:34N 50°20' W 125°27'113.9
2019-Sep-14 11:29N 50°20' W 125°25'816.2
2019-Sep-14 11:00N 50°12' W 125°22'612.3
2019-Sep-14 10:31N 50°07' W 125°19'5 9.0
2019-Sep-14 10:00N 50°03' W 125°14'510.3
2019-Sep-14 09:30N 49°59' W 125°10'816.6
2019-Sep-14 09:00N 49°52' W 125°02'816.7
2019-Sep-14 08:30N 49°47' W 124°52'816.8
2019-Sep-14 08:00N 49°41' W 124°43'917.0
2019-Sep-14 07:30N 49°35' W 124°34'917.2
2019-Sep-14 06:59N 49°29' W 124°24'816.4
2019-Sep-14 06:30N 49°25' W 124°13'917.0
2019-Sep-14 06:00N 49°23' W 124°00'817.0
2019-Sep-14 05:30N 49°21' W 123°48'817.0
2019-Sep-14 05:00N 49°15' W 123°38'816.6
2019-Sep-14 04:30N 49°09' W 123°29'816.6
2019-Sep-14 04:00N 49°04' W 123°20'816.1
2019-Sep-14 03:30N 48°58' W 123°11'816.0
2019-Sep-14 03:00N 48°53' W 123°02'917.1
2019-Sep-14 02:28N 48°47' W 122°51'816.8
2019-Sep-14 02:00N 48°42' W 122°43'612.1
2019-Sep-14 01:30N 48°40' W 122°34'4 0.7
2019-Sep-13 19:41N 48°43' W 122°31'0 0.0
2019-Sep-13 19:11N 48°43' W 122°31'0 0.0
2019-Sep-13 18:41N 48°43' W 122°31'0 0.0
2019-Sep-13 14:49N 48°43' W 122°31'0 0.3
2019-Sep-13 14:30N 48°43' W 122°31'611.3
2019-Sep-13 14:01N 48°38' W 122°34'713.2
2019-Sep-13 13:30N 48°41' W 122°44'714.9
2019-Sep-13 13:00N 48°46' W 122°51'917.3
2019-Sep-13 12:30N 48°51' W 123°02'918.1
2019-Sep-13 12:00N 48°56' W 123°13'917.4
2019-Sep-13 11:30N 49°02' W 123°23'917.2
2019-Sep-13 11:00N 49°09' W 123°31'917.4
2019-Sep-13 10:30N 49°15' W 123°40'917.2
2019-Sep-13 10:00N 49°22' W 123°49'816.3
2019-Sep-13 09:30N 49°23' W 124°01'816.8
2019-Sep-13 09:00N 49°25' W 124°14'815.9
2019-Sep-13 08:30N 49°29' W 124°25'816.6
2019-Sep-13 08:00N 49°35' W 124°34'816.7
2019-Sep-13 07:31N 49°41' W 124°43'816.4
2019-Sep-13 07:00N 49°46' W 124°52'817.0
2019-Sep-13 06:30N 49°52' W 125°01'814.9
2019-Sep-13 06:00N 49°58' W 125°09'713.3
2019-Sep-13 05:30N 50°03' W 125°15'612.2
2019-Sep-13 05:00N 50°08' W 125°21'5 9.6
2019-Sep-13 04:30N 50°13' W 125°22'4 9.0
2019-Sep-13 04:00N 50°17' W 125°25'6 9.2
2019-Sep-13 03:20N 50°21' W 125°32'610.1
2019-Sep-13 02:42N 50°22' W 125°41'410.0
2019-Sep-13 02:19N 50°23' W 125°48'7613.4
2019-Sep-12 20:41N 50°59' W 127°32'515.6
2019-Sep-12 20:20N 51°02' W 127°38'515.9
2019-Sep-12 20:00N 51°06' W 127°45'815.9
2019-Sep-12 19:30N 51°10' W 127°56'815.1
2019-Sep-12 19:00N 51°17' W 127°52'815.6
2019-Sep-12 18:30N 51°25' W 127°50'816.3
2019-Sep-12 18:00N 51°33' W 127°52'816.2
2019-Sep-12 17:30N 51°40' W 127°55'816.4
2019-Sep-12 17:01N 51°49' W 127°56'816.4
2019-Sep-12 16:30N 51°57' W 127°56'815.2
2019-Sep-12 16:00N 52°04' W 127°58'713.6
2019-Sep-12 15:31N 52°08' W 128°08'4 7.4
2019-Sep-12 15:00N 52°11' W 128°06'714.7
2019-Sep-12 14:30N 52°15' W 128°17'815.9
2019-Sep-12 14:00N 52°16' W 128°29'4 8.3
2019-Sep-12 13:31N 52°20' W 128°32'714.4
2019-Sep-12 13:00N 52°27' W 128°28'816.1
2019-Sep-12 12:30N 52°35' W 128°29'816.5
2019-Sep-12 12:00N 52°43' W 128°34'7514.4
2019-Sep-12 06:47N 53°43' W 129°49'515.9
2019-Sep-12 06:27N 53°46' W 129°55'715.6
2019-Sep-12 06:00N 53°51' W 130°03'715.0
2019-Sep-12 05:30N 53°57' W 130°12'815.2
2019-Sep-12 05:00N 54°04' W 130°16'713.3
2019-Sep-12 04:30N 54°09' W 130°24'815.7
2019-Sep-12 04:00N 54°15' W 130°32'816.2
2019-Sep-12 03:30N 54°23' W 130°37'816.9
2019-Sep-12 03:00N 54°31' W 130°39'916.3
2019-Sep-12 02:28N 54°39' W 130°46'816.5
2019-Sep-12 02:00N 54°45' W 130°54'  

Dump ship's entire track history